createdAt,value
2017-05-12T00:01:15.319Z,22.87
2017-05-12T00:02:15.246Z,22.9
2017-05-12T00:03:15.181Z,22.98
2017-05-12T00:04:15.121Z,22.94
2017-05-12T00:05:15.067Z,22.91
2017-05-12T00:06:15.093Z,22.96
2017-05-12T00:07:14.933Z,22.85
2017-05-12T00:08:14.867Z,22.94
2017-05-12T00:09:14.806Z,22.9
2017-05-12T00:10:14.747Z,22.93
2017-05-12T00:11:14.681Z,22.91
2017-05-12T00:12:14.621Z,22.98
2017-05-12T00:13:14.563Z,22.96
2017-05-12T00:14:14.498Z,22.85
2017-05-12T00:15:14.429Z,22.88
2017-05-12T00:16:14.066Z,22.85
2017-05-12T00:17:14.308Z,22.85
2017-05-12T00:18:13.944Z,22.91
2017-05-12T00:19:14.181Z,22.98
2017-05-12T00:20:13.824Z,22.93
2017-05-12T00:21:13.756Z,22.91
2017-05-12T00:22:13.993Z,22.91
2017-05-12T00:23:13.930Z,22.94
2017-05-12T00:24:13.570Z,22.93
2017-05-12T00:25:13.812Z,22.93
2017-05-12T00:26:13.754Z,22.88
2017-05-12T00:27:13.380Z,22.98
2017-05-12T00:28:13.619Z,22.85
2017-05-12T00:29:13.567Z,22.84
2017-05-12T00:30:13.498Z,22.91
2017-05-12T00:31:13.133Z,22.87
2017-05-12T00:32:13.067Z,22.9
2017-05-12T00:33:13.313Z,22.87
2017-05-12T00:34:12.951Z,22.8
2017-05-12T00:35:13.188Z,22.85
2017-05-12T00:36:13.121Z,22.91
2017-05-12T00:37:12.759Z,22.9
2017-05-12T00:38:12.998Z,22.9
2017-05-12T00:39:12.939Z,22.84
2017-05-12T00:40:12.876Z,22.8
2017-05-12T00:41:12.810Z,22.84
2017-05-12T00:42:12.447Z,22.93
2017-05-12T00:43:12.684Z,22.91
2017-05-12T00:44:12.621Z,22.83
2017-05-12T00:45:12.563Z,22.83
2017-05-12T00:46:12.541Z,22.91
2017-05-12T00:47:12.437Z,22.78
2017-05-12T00:48:12.374Z,22.93
2017-05-12T00:49:12.313Z,22.85
2017-05-12T00:50:12.247Z,22.8
2017-05-12T00:51:12.192Z,22.91
2017-05-12T00:52:12.132Z,22.93
2017-05-12T00:53:12.064Z,22.81
2017-05-12T00:54:12.005Z,22.91
2017-05-12T00:55:11.932Z,22.76
2017-05-12T00:56:11.871Z,22.83
2017-05-12T00:57:11.811Z,22.81
2017-05-12T00:58:11.750Z,22.83
2017-05-12T00:59:11.686Z,22.84
2017-05-12T01:00:11.626Z,22.8
2017-05-12T01:01:11.564Z,22.84
2017-05-12T01:02:11.195Z,22.76
2017-05-12T01:03:11.436Z,22.8
2017-05-12T01:04:11.374Z,22.83
2017-05-12T01:05:11.317Z,22.8
2017-05-12T01:06:11.250Z,22.84
2017-05-12T01:07:10.888Z,22.85
2017-05-12T01:08:10.520Z,22.9
2017-05-12T01:09:11.061Z,22.9
2017-05-12T01:10:11.007Z,22.91
2017-05-12T01:11:10.938Z,22.9
2017-05-12T01:12:10.877Z,22.81
2017-05-12T01:13:10.814Z,22.8
2017-05-12T01:14:10.753Z,22.81
2017-05-12T01:15:10.688Z,22.91
2017-05-12T01:16:10.629Z,22.81
2017-05-12T01:17:10.559Z,22.78
2017-05-12T01:18:10.499Z,22.91
2017-05-12T01:19:10.641Z,22.83
2017-05-12T01:20:10.381Z,22.81
2017-05-12T01:21:10.313Z,22.78
2017-05-12T01:22:10.251Z,22.85
2017-05-12T01:23:10.190Z,22.81
2017-05-12T01:24:09.826Z,22.81
2017-05-12T01:25:10.067Z,22.8
2017-05-12T01:26:10.002Z,22.8
2017-05-12T01:27:09.978Z,22.9
2017-05-12T01:28:09.875Z,22.81
2017-05-12T01:29:10.715Z,22.81
2017-05-12T01:30:09.747Z,22.83
2017-05-12T01:31:09.688Z,22.81
2017-05-12T01:32:09.627Z,22.78
2017-05-12T01:33:09.577Z,22.81
2017-05-12T01:34:09.505Z,22.78
2017-05-12T01:35:09.437Z,22.83
2017-05-12T01:36:08.771Z,22.81
2017-05-12T01:37:09.317Z,22.78
2017-05-12T01:38:08.950Z,22.85
2017-05-12T01:39:09.187Z,22.8
2017-05-12T01:40:09.132Z,22.85
2017-05-12T01:41:08.765Z,22.81
2017-05-12T01:42:09.007Z,22.81
2017-05-12T01:43:08.641Z,22.83
2017-05-12T01:44:08.881Z,22.81
2017-05-12T01:45:08.816Z,22.78
2017-05-12T01:46:08.448Z,22.81
2017-05-12T01:47:08.090Z,22.83
2017-05-12T01:48:08.629Z,22.84
2017-05-12T01:49:08.568Z,22.78
2017-05-12T01:50:08.524Z,22.78
2017-05-12T01:51:08.441Z,22.84
2017-05-12T01:52:08.075Z,22.85
2017-05-12T01:53:08.317Z,22.83
2017-05-12T01:54:08.255Z,22.83
2017-05-12T01:55:07.931Z,22.85
2017-05-12T01:56:08.127Z,22.81
2017-05-12T01:57:07.764Z,22.83
2017-05-12T01:58:08.003Z,22.83
2017-05-12T01:59:07.942Z,22.8
2017-05-12T02:00:07.582Z,22.81
2017-05-12T02:01:07.512Z,22.83
2017-05-12T02:02:07.454Z,22.81
2017-05-12T02:03:07.689Z,22.83
2017-05-12T02:04:07.327Z,22.9
2017-05-12T02:05:07.271Z,22.83
2017-05-12T02:06:07.505Z,22.8
2017-05-12T02:07:07.443Z,22.88
2017-05-12T02:08:07.082Z,22.78
2017-05-12T02:09:07.319Z,22.83
2017-05-12T02:10:06.991Z,22.75
2017-05-12T02:11:07.190Z,22.81
2017-05-12T02:12:06.825Z,22.76
2017-05-12T02:13:07.066Z,22.78
2017-05-12T02:14:06.700Z,22.69
2017-05-12T02:15:07.043Z,22.76
2017-05-12T02:16:06.882Z,22.81
2017-05-12T02:17:06.817Z,22.73
2017-05-12T02:18:06.451Z,22.76
2017-05-12T02:19:06.695Z,22.85
2017-05-12T02:20:06.626Z,22.81
2017-05-12T02:21:06.270Z,22.75
2017-05-12T02:22:06.201Z,22.87
2017-05-12T02:23:06.448Z,22.75
2017-05-12T02:24:06.075Z,22.73
2017-05-12T02:25:06.317Z,22.78
2017-05-12T02:26:06.251Z,22.84
2017-05-12T02:27:06.193Z,22.8
2017-05-12T02:28:05.826Z,22.75
2017-05-12T02:29:06.074Z,22.7
2017-05-12T02:30:05.699Z,22.8
2017-05-12T02:31:05.941Z,22.75
2017-05-12T02:32:05.615Z,22.78
2017-05-12T02:33:05.817Z,22.81
2017-05-12T02:34:05.758Z,22.81
2017-05-12T02:35:05.387Z,22.75
2017-05-12T02:36:05.629Z,22.81
2017-05-12T02:37:05.565Z,22.76
2017-05-12T02:38:05.506Z,22.76
2017-05-12T02:39:05.444Z,22.78
2017-05-12T02:40:05.381Z,22.73
2017-05-12T02:41:05.318Z,22.81
2017-05-12T02:42:05.257Z,22.7
2017-05-12T02:43:05.190Z,22.81
2017-05-12T02:44:05.133Z,22.84
2017-05-12T02:45:05.064Z,22.72
2017-05-12T02:46:05.004Z,22.76
2017-05-12T02:47:04.940Z,22.75
2017-05-12T02:48:04.888Z,22.76
2017-05-12T02:49:04.825Z,22.8
2017-05-12T02:50:04.752Z,22.84
2017-05-12T02:51:04.693Z,22.78
2017-05-12T02:52:04.627Z,22.75
2017-05-12T02:53:04.570Z,22.87
2017-05-12T02:54:04.506Z,22.72
2017-05-12T02:55:04.444Z,22.84
2017-05-12T02:56:04.380Z,22.73
2017-05-12T02:57:04.314Z,22.83
2017-05-12T02:58:03.961Z,22.7
2017-05-12T02:59:03.891Z,22.73
2017-05-12T03:00:04.208Z,22.75
2017-05-12T03:01:04.067Z,22.76
2017-05-12T03:02:04.003Z,22.8
2017-05-12T03:03:03.940Z,22.76
2017-05-12T03:04:03.878Z,22.83
2017-05-12T03:05:03.817Z,22.72
2017-05-12T03:06:03.752Z,22.78
2017-05-12T03:07:03.695Z,22.81
2017-05-12T03:08:03.626Z,22.78
2017-05-12T03:09:03.567Z,22.72
2017-05-12T03:10:03.501Z,22.76
2017-05-12T03:11:03.441Z,22.83
2017-05-12T03:12:03.380Z,22.7
2017-05-12T03:13:03.020Z,22.78
2017-05-12T03:14:03.298Z,22.69
2017-05-12T03:15:03.243Z,22.75
2017-05-12T03:16:03.129Z,22.73
2017-05-12T03:17:03.065Z,22.78
2017-05-12T03:18:03.006Z,22.75
2017-05-12T03:19:02.945Z,22.76
2017-05-12T03:20:02.889Z,22.8
2017-05-12T03:21:02.816Z,22.69
2017-05-12T03:22:02.756Z,22.73
2017-05-12T03:23:02.709Z,22.76
2017-05-12T03:24:02.631Z,22.73
2017-05-12T03:25:02.565Z,22.84
2017-05-12T03:26:02.501Z,22.76
2017-05-12T03:27:02.441Z,22.73
2017-05-12T03:28:02.382Z,22.81
2017-05-12T03:29:02.316Z,22.76
2017-05-12T03:30:02.254Z,22.72
2017-05-12T03:31:02.194Z,22.83
2017-05-12T03:32:02.126Z,22.8
2017-05-12T03:33:02.077Z,22.78
2017-05-12T03:34:02.004Z,22.8
2017-05-12T03:35:01.945Z,22.76
2017-05-12T03:36:01.574Z,22.76
2017-05-12T03:37:01.518Z,22.76
2017-05-12T03:38:01.758Z,22.75
2017-05-12T03:39:01.696Z,22.78
2017-05-12T03:40:01.628Z,22.69
2017-05-12T03:41:01.258Z,22.78
2017-05-12T03:42:01.500Z,22.8
2017-05-12T03:43:01.446Z,22.76
2017-05-12T03:44:01.072Z,22.69
2017-05-12T03:45:01.316Z,22.76
2017-05-12T03:46:01.257Z,22.75
2017-05-12T03:47:01.189Z,22.73
2017-05-12T03:48:01.120Z,22.7
2017-05-12T03:49:01.092Z,22.8
2017-05-12T03:50:00.997Z,22.73
2017-05-12T03:51:00.936Z,22.84
2017-05-12T03:52:00.873Z,22.75
2017-05-12T03:53:00.813Z,22.72
2017-05-12T03:54:00.751Z,22.76
2017-05-12T03:55:00.688Z,22.8
2017-05-12T03:56:00.630Z,22.75
2017-05-12T03:57:00.562Z,22.78
2017-05-12T03:58:00.501Z,22.76
2017-05-12T03:59:00.437Z,22.73
2017-05-12T04:00:00.377Z,22.75
2017-05-12T04:01:00.316Z,22.78
2017-05-12T04:02:00.250Z,22.78
2017-05-12T04:03:00.185Z,22.76
2017-05-12T04:04:00.128Z,22.73
2017-05-12T04:05:00.063Z,22.75
2017-05-12T04:05:59.997Z,22.66
2017-05-12T04:06:59.932Z,22.68
2017-05-12T04:07:59.917Z,22.75
2017-05-12T04:08:59.807Z,22.7
2017-05-12T04:09:59.746Z,22.65
2017-05-12T04:10:59.687Z,22.62
2017-05-12T04:11:59.627Z,22.73
2017-05-12T04:12:59.565Z,22.6
2017-05-12T04:13:59.500Z,22.6
2017-05-12T04:14:59.432Z,22.54
2017-05-12T04:15:59.371Z,22.62
2017-05-12T04:16:59.312Z,22.57
2017-05-12T04:17:59.255Z,22.59
2017-05-12T04:18:59.192Z,22.57
2017-05-12T04:19:59.120Z,22.57
2017-05-12T04:20:59.060Z,22.57
2017-05-12T04:21:58.696Z,22.6
2017-05-12T04:22:58.935Z,22.53
2017-05-12T04:23:58.875Z,22.59
2017-05-12T04:24:58.805Z,22.57
2017-05-12T04:25:58.749Z,22.51
2017-05-12T04:26:58.687Z,22.57
2017-05-12T04:27:58.618Z,22.55
2017-05-12T04:28:58.567Z,22.55
2017-05-12T04:29:58.495Z,22.48
2017-05-12T04:30:58.429Z,22.59
2017-05-12T04:31:58.373Z,22.54
2017-05-12T04:32:58.305Z,22.48
2017-05-12T04:33:58.242Z,22.54
2017-05-12T04:34:58.180Z,22.51
2017-05-12T04:35:57.817Z,22.54
2017-05-12T04:36:58.055Z,22.45
2017-05-12T04:37:57.996Z,22.54
2017-05-12T04:38:57.931Z,22.54
2017-05-12T04:39:57.564Z,22.48
2017-05-12T04:40:57.856Z,22.44
2017-05-12T04:41:57.741Z,22.5
2017-05-12T04:42:57.388Z,22.47
2017-05-12T04:43:57.616Z,22.45
2017-05-12T04:44:57.556Z,22.47
2017-05-12T04:45:57.488Z,22.44
2017-05-12T04:46:57.135Z,22.5
2017-05-12T04:47:57.366Z,22.32
2017-05-12T04:48:57.004Z,22.35
2017-05-12T04:49:57.241Z,22.41
2017-05-12T04:50:57.280Z,22.39
2017-05-12T04:51:57.119Z,22.41
2017-05-12T04:52:57.061Z,22.38
2017-05-12T04:53:56.991Z,22.44
2017-05-12T04:54:56.929Z,22.47
2017-05-12T04:55:56.861Z,22.41
2017-05-12T04:56:56.801Z,22.38
2017-05-12T04:57:56.741Z,22.48
2017-05-12T04:58:56.682Z,22.41
2017-05-12T04:59:56.657Z,22.39
2017-05-12T05:00:56.549Z,22.36
2017-05-12T05:01:56.488Z,22.41
2017-05-12T05:02:56.421Z,22.38
2017-05-12T05:03:56.369Z,22.44
2017-05-12T05:04:56.303Z,22.39
2017-05-12T05:05:56.233Z,22.41
2017-05-12T05:06:56.173Z,22.36
2017-05-12T05:07:56.111Z,22.38
2017-05-12T05:08:56.046Z,22.36
2017-05-12T05:09:55.987Z,22.39
2017-05-12T05:10:55.925Z,22.32
2017-05-12T05:11:55.856Z,22.36
2017-05-12T05:12:55.800Z,22.39
2017-05-12T05:13:55.740Z,22.39
2017-05-12T05:14:55.674Z,22.32
2017-05-12T05:15:55.610Z,22.35
2017-05-12T05:16:55.543Z,22.38
2017-05-12T05:17:55.485Z,22.33
2017-05-12T05:18:55.116Z,22.35
2017-05-12T05:19:55.357Z,22.38
2017-05-12T05:20:55.298Z,22.35
2017-05-12T05:21:55.229Z,22.32
2017-05-12T05:22:55.168Z,22.39
2017-05-12T05:23:55.102Z,22.3
2017-05-12T05:24:55.042Z,22.38
2017-05-12T05:25:54.979Z,22.26
2017-05-12T05:26:54.915Z,22.35
2017-05-12T05:27:54.859Z,22.32
2017-05-12T05:28:54.792Z,22.26
2017-05-12T05:29:54.729Z,22.28
2017-05-12T05:30:54.668Z,22.25
2017-05-12T05:31:54.602Z,22.3
2017-05-12T05:32:54.542Z,22.22
2017-05-12T05:33:54.476Z,22.22
2017-05-12T05:34:54.416Z,22.32
2017-05-12T05:35:54.358Z,22.22
2017-05-12T05:36:54.287Z,22.28
2017-05-12T05:37:54.225Z,22.3
2017-05-12T05:38:54.163Z,22.28
2017-05-12T05:39:54.102Z,22.29
2017-05-12T05:40:54.039Z,22.22
2017-05-12T05:41:53.971Z,22.3
2017-05-12T05:42:53.910Z,22.28
2017-05-12T05:43:53.848Z,22.25
2017-05-12T05:44:53.783Z,22.18
2017-05-12T05:45:53.720Z,22.25
2017-05-12T05:46:53.668Z,22.3
2017-05-12T05:47:53.598Z,22.3
2017-05-12T05:48:53.534Z,22.3
2017-05-12T05:49:53.207Z,22.17
2017-05-12T05:50:53.404Z,22.23
2017-05-12T05:51:53.345Z,22.25
2017-05-12T05:52:52.977Z,22.2
2017-05-12T05:53:53.217Z,22.3
2017-05-12T05:54:53.158Z,22.26
2017-05-12T05:55:53.092Z,22.17
2017-05-12T05:56:53.026Z,22.26
2017-05-12T05:57:52.963Z,22.28
2017-05-12T05:58:52.901Z,22.2
2017-05-12T05:59:52.838Z,22.2
2017-05-12T06:00:53.861Z,22.17
2017-05-12T06:01:52.713Z,22.17
2017-05-12T06:02:52.647Z,22.18
2017-05-12T06:03:52.597Z,22.17
2017-05-12T06:04:52.523Z,22.18
2017-05-12T06:05:52.479Z,22.17
2017-05-12T06:06:52.431Z,22.25
2017-05-12T06:07:52.334Z,22.18
2017-05-12T06:08:52.273Z,22.23
2017-05-12T06:09:52.209Z,22.17
2017-05-12T06:10:52.148Z,22.18
2017-05-12T06:11:52.083Z,22.17
2017-05-12T06:12:52.020Z,22.18
2017-05-12T06:13:51.956Z,22.18
2017-05-12T06:14:52.101Z,22.23
2017-05-12T06:15:51.833Z,22.17
2017-05-12T06:16:51.468Z,22.18
2017-05-12T06:17:51.405Z,22.15
2017-05-12T06:18:51.644Z,22.22
2017-05-12T06:19:51.579Z,22.15
2017-05-12T06:20:51.517Z,22.25
2017-05-12T06:21:51.455Z,22.14
2017-05-12T06:22:51.398Z,22.2
2017-05-12T06:23:51.327Z,22.15
2017-05-12T06:24:51.273Z,22.2
2017-05-12T06:25:51.204Z,22.17
2017-05-12T06:26:50.838Z,22.14
2017-05-12T06:27:51.078Z,22.14
2017-05-12T06:28:51.016Z,22.14
2017-05-12T06:29:50.954Z,22.18
2017-05-12T06:30:50.885Z,22.14
2017-05-12T06:31:50.829Z,22.18
2017-05-12T06:32:50.460Z,22.14
2017-05-12T06:33:50.706Z,22.14
2017-05-12T06:34:50.637Z,22.17
2017-05-12T06:35:50.269Z,22.13
2017-05-12T06:36:50.510Z,22.14
2017-05-12T06:37:50.445Z,22.11
2017-05-12T06:38:50.082Z,22.17
2017-05-12T06:39:50.027Z,22.14
2017-05-12T06:40:50.256Z,22.18
2017-05-12T06:41:50.207Z,22.2
2017-05-12T06:42:50.135Z,22.18
2017-05-12T06:43:50.079Z,22.14
2017-05-12T06:44:50.008Z,22.3
2017-05-12T06:45:49.943Z,22.22
2017-05-12T06:46:49.879Z,22.17
2017-05-12T06:47:49.826Z,22.33
2017-05-12T06:48:49.754Z,22.3
2017-05-12T06:49:49.694Z,22.32
2017-05-12T06:50:49.637Z,22.2
2017-05-12T06:51:49.580Z,22.28
2017-05-12T06:52:49.504Z,22.25
2017-05-12T06:53:49.444Z,22.25
2017-05-12T06:54:49.080Z,22.33
2017-05-12T06:55:49.312Z,22.23
2017-05-12T06:56:49.259Z,22.22
2017-05-12T06:57:49.262Z,22.25
2017-05-12T06:58:49.135Z,22.28
2017-05-12T06:59:49.066Z,22.26
2017-05-12T07:00:50.823Z,22.3
2017-05-12T07:01:48.655Z,22.25
2017-05-12T07:02:48.576Z,22.29
2017-05-12T07:03:48.820Z,22.28
2017-05-12T07:04:48.749Z,22.26
2017-05-12T07:05:48.726Z,22.33
2017-05-12T07:06:48.646Z,22.29
2017-05-12T07:07:48.580Z,22.25
2017-05-12T07:08:48.499Z,22.23
2017-05-12T07:09:48.447Z,22.25
2017-05-12T07:10:48.383Z,22.25
2017-05-12T07:11:48.321Z,22.25
2017-05-12T07:12:48.271Z,22.25
2017-05-12T07:13:48.197Z,22.22
2017-05-12T07:14:47.864Z,22.3
2017-05-12T07:15:47.782Z,22.25
2017-05-12T07:16:47.725Z,22.28
2017-05-12T07:17:47.942Z,22.29
2017-05-12T07:18:47.873Z,22.18
2017-05-12T07:19:47.500Z,22.25
2017-05-12T07:20:47.751Z,22.25
2017-05-12T07:21:47.679Z,22.22
2017-05-12T07:22:47.629Z,22.32
2017-05-12T07:23:47.360Z,22.25
2017-05-12T07:24:47.189Z,22.3
2017-05-12T07:25:47.153Z,22.25
2017-05-12T07:26:47.062Z,22.2
2017-05-12T07:27:46.996Z,22.25
2017-05-12T07:28:47.241Z,22.28
2017-05-12T07:29:47.174Z,22.28
2017-05-12T07:30:47.215Z,22.23
2017-05-12T07:31:47.058Z,22.32
2017-05-12T07:32:47.007Z,22.26
2017-05-12T07:33:46.943Z,22.22
2017-05-12T07:34:46.874Z,22.25
2017-05-12T07:35:46.801Z,22.25
2017-05-12T07:36:46.989Z,22.32
2017-05-12T07:37:46.678Z,22.23
2017-05-12T07:38:46.611Z,22.23
2017-05-12T07:39:46.550Z,22.23
2017-05-12T07:40:46.487Z,22.23
2017-05-12T07:41:46.974Z,22.25
2017-05-12T07:42:46.361Z,22.22
2017-05-12T07:43:45.995Z,22.25
2017-05-12T07:44:46.243Z,22.26
2017-05-12T07:45:46.224Z,22.35
2017-05-12T07:46:45.811Z,22.22
2017-05-12T07:47:46.050Z,22.29
2017-05-12T07:48:45.675Z,22.25
2017-05-12T07:49:45.636Z,22.32
2017-05-12T07:50:45.905Z,22.26
2017-05-12T07:51:45.807Z,22.23
2017-05-12T07:52:45.735Z,22.22
2017-05-12T07:53:45.692Z,22.26
2017-05-12T07:54:45.605Z,22.26
2017-05-12T07:55:45.695Z,22.28
2017-05-12T07:56:45.501Z,22.35
2017-05-12T07:57:45.441Z,22.29
2017-05-12T07:58:45.303Z,22.35
2017-05-12T07:59:45.328Z,22.32
2017-05-12T08:00:45.226Z,22.28
2017-05-12T08:01:45.167Z,22.39
2017-05-12T08:02:45.105Z,22.32
2017-05-12T08:03:45.035Z,22.35
2017-05-12T08:04:44.979Z,22.28
2017-05-12T08:05:44.917Z,22.38
2017-05-12T08:06:44.853Z,22.33
2017-05-12T08:07:44.789Z,22.25
2017-05-12T08:08:45.027Z,22.36
2017-05-12T08:09:44.358Z,22.23
2017-05-12T08:10:44.604Z,22.3
2017-05-12T08:11:44.534Z,22.25
2017-05-12T08:12:44.686Z,22.33
2017-05-12T08:13:44.423Z,22.35
2017-05-12T08:14:44.352Z,22.33
2017-05-12T08:15:44.488Z,22.23
2017-05-12T08:16:43.922Z,22.33
2017-05-12T08:17:44.160Z,22.32
2017-05-12T08:18:44.097Z,22.36
2017-05-12T08:19:43.729Z,22.35
2017-05-12T08:20:43.970Z,22.35
2017-05-12T08:21:43.909Z,22.33
2017-05-12T08:22:43.541Z,22.29
2017-05-12T08:23:43.784Z,22.26
2017-05-12T08:24:43.717Z,22.23
2017-05-12T08:25:43.354Z,22.28
2017-05-12T08:26:43.287Z,22.35
2017-05-12T08:27:43.227Z,22.23
2017-05-12T08:28:43.466Z,22.22
2017-05-12T08:29:43.401Z,22.28
2017-05-12T08:30:43.344Z,22.38
2017-05-12T08:31:43.276Z,22.35
2017-05-12T08:32:43.265Z,22.36
2017-05-12T08:33:42.853Z,22.33
2017-05-12T08:34:43.189Z,22.38
2017-05-12T08:35:43.318Z,22.41
2017-05-12T08:36:42.964Z,22.35
2017-05-12T08:37:42.902Z,22.41
2017-05-12T08:38:42.836Z,22.35
2017-05-12T08:39:42.775Z,22.41
2017-05-12T08:40:42.407Z,22.38
2017-05-12T08:41:42.524Z,22.32
2017-05-12T08:42:42.437Z,22.33
2017-05-12T08:43:42.536Z,22.33
2017-05-12T08:44:42.461Z,22.35
2017-05-12T08:45:42.752Z,22.38
2017-05-12T08:46:42.393Z,22.32
2017-05-12T08:47:42.274Z,22.35
2017-05-12T08:48:42.208Z,22.36
2017-05-12T08:49:42.350Z,22.38
2017-05-12T08:50:42.208Z,22.43
2017-05-12T08:51:42.041Z,22.36
2017-05-12T08:52:41.971Z,22.35
2017-05-12T08:53:41.904Z,22.32
2017-05-12T08:54:41.834Z,22.44
2017-05-12T08:55:41.773Z,22.38
2017-05-12T08:56:41.719Z,22.39
2017-05-12T08:57:42.045Z,22.39
2017-05-12T08:58:41.588Z,22.38
2017-05-12T08:59:41.517Z,22.39
2017-05-12T09:00:41.453Z,22.39
2017-05-12T09:01:41.390Z,22.39
2017-05-12T09:02:41.365Z,22.39
2017-05-12T09:03:41.278Z,22.39
2017-05-12T09:04:41.214Z,22.38
2017-05-12T09:05:41.141Z,22.33
2017-05-12T09:06:41.079Z,22.35
2017-05-12T09:07:41.023Z,22.36
2017-05-12T09:08:40.953Z,22.35
2017-05-12T09:09:40.891Z,22.43
2017-05-12T09:10:40.825Z,22.33
2017-05-12T09:11:40.762Z,22.41
2017-05-12T09:12:40.701Z,22.36
2017-05-12T09:13:40.638Z,22.33
2017-05-12T09:14:40.575Z,22.38
2017-05-12T09:15:40.514Z,22.41
2017-05-12T09:16:40.482Z,22.33
2017-05-12T09:17:40.392Z,22.33
2017-05-12T09:18:40.324Z,22.41
2017-05-12T09:19:40.382Z,22.43
2017-05-12T09:20:40.199Z,22.36
2017-05-12T09:21:40.135Z,22.43
2017-05-12T09:22:40.074Z,22.39
2017-05-12T09:23:40.009Z,22.38
2017-05-12T09:24:39.951Z,22.39
2017-05-12T09:25:39.883Z,22.41
2017-05-12T09:26:39.822Z,22.43
2017-05-12T09:27:39.476Z,22.39
2017-05-12T09:28:39.693Z,22.39
2017-05-12T09:29:39.631Z,22.45
2017-05-12T09:30:39.826Z,22.41
2017-05-12T09:31:39.285Z,22.41
2017-05-12T09:32:39.451Z,22.41
2017-05-12T09:33:39.381Z,22.44
2017-05-12T09:34:39.322Z,22.43
2017-05-12T09:35:38.954Z,22.51
2017-05-12T09:36:38.893Z,22.48
2017-05-12T09:37:38.833Z,22.5
2017-05-12T09:38:38.772Z,22.45
2017-05-12T09:39:39.007Z,22.43
2017-05-12T09:40:39.192Z,22.44
2017-05-12T09:41:38.880Z,22.5
2017-05-12T09:42:38.517Z,22.53
2017-05-12T09:43:38.760Z,22.51
2017-05-12T09:44:38.691Z,22.48
2017-05-12T09:45:38.731Z,22.45
2017-05-12T09:46:38.568Z,22.55
2017-05-12T09:47:38.502Z,22.53
2017-05-12T09:48:38.444Z,22.45
2017-05-12T09:49:38.384Z,22.6
2017-05-12T09:50:38.318Z,22.53
2017-05-12T09:51:38.252Z,22.59
2017-05-12T09:52:38.196Z,22.59
2017-05-12T09:53:38.127Z,22.6
2017-05-12T09:54:38.068Z,22.5
2017-05-12T09:55:37.699Z,22.59
2017-05-12T09:56:37.943Z,22.59
2017-05-12T09:57:37.876Z,22.57
2017-05-12T09:58:37.816Z,22.55
2017-05-12T09:59:37.756Z,22.53
2017-05-12T10:00:37.847Z,22.54
2017-05-12T10:01:37.322Z,22.53
2017-05-12T10:02:37.571Z,22.54
2017-05-12T10:03:37.195Z,22.53
2017-05-12T10:04:37.442Z,22.59
2017-05-12T10:05:37.521Z,22.57
2017-05-12T10:06:37.015Z,22.59
2017-05-12T10:07:37.252Z,22.54
2017-05-12T10:08:37.200Z,22.57
2017-05-12T10:09:37.124Z,22.62
2017-05-12T10:10:37.009Z,22.63
2017-05-12T10:11:36.996Z,22.6
2017-05-12T10:12:36.937Z,22.59
2017-05-12T10:13:36.873Z,22.62
2017-05-12T10:14:36.508Z,22.69
2017-05-12T10:15:36.695Z,22.62
2017-05-12T10:16:36.690Z,22.62
2017-05-12T10:17:36.320Z,22.68
2017-05-12T10:18:36.562Z,22.6
2017-05-12T10:19:36.498Z,22.62
2017-05-12T10:20:36.691Z,22.7
2017-05-12T10:21:36.381Z,22.76
2017-05-12T10:22:36.347Z,22.7
2017-05-12T10:23:36.245Z,22.76
2017-05-12T10:24:36.504Z,22.65
2017-05-12T10:25:36.122Z,22.8
2017-05-12T10:26:36.065Z,22.75
2017-05-12T10:27:36.001Z,22.75
2017-05-12T10:28:35.951Z,22.78
2017-05-12T10:29:35.874Z,22.76
2017-05-12T10:30:35.807Z,22.78
2017-05-12T10:31:35.746Z,22.73
2017-05-12T10:32:35.684Z,22.75
2017-05-12T10:33:35.625Z,22.75
2017-05-12T10:34:35.560Z,22.78
2017-05-12T10:35:35.190Z,22.87
2017-05-12T10:36:35.433Z,22.84
2017-05-12T10:37:35.375Z,22.83
2017-05-12T10:38:35.017Z,22.81
2017-05-12T10:39:34.987Z,22.8
2017-05-12T10:40:35.296Z,22.87
2017-05-12T10:41:35.120Z,22.84
2017-05-12T10:42:35.058Z,22.81
2017-05-12T10:43:34.997Z,22.81
2017-05-12T10:44:34.940Z,22.8
2017-05-12T10:45:34.691Z,22.76
2017-05-12T10:46:34.509Z,22.88
2017-05-12T10:47:34.748Z,22.76
2017-05-12T10:48:34.687Z,22.87
2017-05-12T10:49:34.321Z,22.8
2017-05-12T10:50:34.564Z,22.88
2017-05-12T10:51:34.498Z,22.87
2017-05-12T10:52:34.440Z,22.81
2017-05-12T10:53:34.374Z,22.9
2017-05-12T10:54:33.704Z,22.93
2017-05-12T10:55:34.255Z,22.9
2017-05-12T10:56:34.187Z,22.94
2017-05-12T10:57:34.124Z,22.93
2017-05-12T10:58:34.067Z,22.93
2017-05-12T10:59:34.000Z,22.85
2017-05-12T11:00:33.935Z,22.91
2017-05-12T11:01:33.572Z,22.88
2017-05-12T11:02:33.814Z,22.98
2017-05-12T11:03:33.750Z,22.98
2017-05-12T11:04:33.686Z,22.98
2017-05-12T11:05:33.627Z,22.9
2017-05-12T11:06:33.564Z,22.94
2017-05-12T11:07:33.509Z,22.99
2017-05-12T11:08:33.438Z,22.9
2017-05-12T11:09:33.071Z,22.98
2017-05-12T11:10:33.664Z,22.99
2017-05-12T11:11:32.948Z,23.05
2017-05-12T11:12:33.197Z,22.96
2017-05-12T11:13:33.160Z,23.02
2017-05-12T11:14:33.089Z,23.02
2017-05-12T11:15:32.949Z,23.02
2017-05-12T11:16:32.940Z,23.05
2017-05-12T11:17:32.877Z,23.02
2017-05-12T11:18:32.823Z,23
2017-05-12T11:19:32.798Z,23.02
2017-05-12T11:20:32.696Z,23.06
2017-05-12T11:21:32.644Z,23.03
2017-05-12T11:22:32.570Z,23.02
2017-05-12T11:23:32.504Z,23.03
2017-05-12T11:24:32.143Z,23.06
2017-05-12T11:25:32.384Z,23.05
2017-05-12T11:26:32.017Z,23.08
2017-05-12T11:27:32.257Z,23.05
2017-05-12T11:28:32.199Z,23.05
2017-05-12T11:29:32.136Z,23.06
2017-05-12T11:30:32.074Z,23.12
2017-05-12T11:31:31.706Z,23.18
2017-05-12T11:32:31.644Z,23.05
2017-05-12T11:33:31.888Z,23.08
2017-05-12T11:34:31.525Z,23.18
2017-05-12T11:35:31.758Z,23.09
2017-05-12T11:36:31.697Z,23.12
2017-05-12T11:37:31.634Z,23.09
2017-05-12T11:38:31.582Z,23.12
2017-05-12T11:39:31.509Z,23.1
2017-05-12T11:40:31.453Z,23.15
2017-05-12T11:41:31.387Z,23.13
2017-05-12T11:42:31.329Z,23.13
2017-05-12T11:43:31.264Z,23.13
2017-05-12T11:44:31.237Z,23.15
2017-05-12T11:45:31.144Z,23.13
2017-05-12T11:46:31.081Z,23.15
2017-05-12T11:47:31.016Z,23.13
2017-05-12T11:48:30.651Z,23.18
2017-05-12T11:49:30.891Z,23.13
2017-05-12T11:50:30.830Z,23.18
2017-05-12T11:51:30.769Z,23.18
2017-05-12T11:52:30.402Z,23.2
2017-05-12T11:53:30.342Z,23.2
2017-05-12T11:54:30.280Z,23.13
2017-05-12T11:55:30.366Z,23.2
2017-05-12T11:56:30.454Z,23.23
2017-05-12T11:57:30.399Z,23.21
2017-05-12T11:58:30.032Z,23.17
2017-05-12T11:59:30.714Z,23.2
2017-05-12T12:00:30.310Z,23.23
2017-05-12T12:01:30.258Z,23.24
2017-05-12T12:02:30.086Z,23.2
2017-05-12T12:03:30.061Z,23.17
2017-05-12T12:04:29.964Z,23.18
2017-05-12T12:05:29.598Z,23.2
2017-05-12T12:06:29.537Z,23.27
2017-05-12T12:07:29.776Z,23.32
2017-05-12T12:08:29.714Z,23.31
2017-05-12T12:09:29.659Z,23.31
2017-05-12T12:10:29.601Z,23.41
2017-05-12T12:11:29.531Z,23.47
2017-05-12T12:12:29.474Z,23.5
2017-05-12T12:13:29.625Z,23.44
2017-05-12T12:14:29.340Z,23.5
2017-05-12T12:15:29.278Z,23.56
2017-05-12T12:16:29.223Z,23.55
2017-05-12T12:17:29.155Z,23.51
2017-05-12T12:18:29.096Z,23.51
2017-05-12T12:19:28.794Z,23.47
2017-05-12T12:20:28.685Z,23.55
2017-05-12T12:21:28.916Z,23.68
2017-05-12T12:22:28.558Z,23.62
2017-05-12T12:23:28.796Z,23.63
2017-05-12T12:24:28.730Z,23.62
2017-05-12T12:25:28.763Z,23.63
2017-05-12T12:26:28.601Z,23.69
2017-05-12T12:27:28.538Z,23.71
2017-05-12T12:28:28.481Z,23.68
2017-05-12T12:29:28.595Z,23.77
2017-05-12T12:30:28.655Z,23.73
2017-05-12T12:31:27.991Z,23.77
2017-05-12T12:32:28.449Z,23.69
2017-05-12T12:33:28.376Z,23.74
2017-05-12T12:34:28.146Z,23.59
2017-05-12T12:35:27.785Z,23.66
2017-05-12T12:36:27.993Z,23.66
2017-05-12T12:37:27.929Z,23.62
2017-05-12T12:38:28.026Z,23.65
2017-05-12T12:39:27.804Z,23.62
2017-05-12T12:40:27.439Z,23.59
2017-05-12T12:41:27.385Z,23.61
2017-05-12T12:42:27.313Z,23.62
2017-05-12T12:43:27.627Z,23.59
2017-05-12T12:44:27.498Z,23.63
2017-05-12T12:45:27.940Z,23.61
2017-05-12T12:46:27.379Z,23.59
2017-05-12T12:47:27.562Z,23.61
2017-05-12T12:48:27.250Z,23.62
2017-05-12T12:49:27.291Z,23.56
2017-05-12T12:50:27.779Z,23.62
2017-05-12T12:51:26.775Z,23.55
2017-05-12T12:52:27.196Z,23.62
2017-05-12T12:53:26.641Z,23.66
2017-05-12T12:54:26.881Z,23.61
2017-05-12T12:55:27.072Z,23.55